• Join FlightAware (Why Join?)
  • Login
  • US Flag 
12:35AM EDT


 

Airport Tracker/Info


-or-


 

Live Flight TrackerFlight Track Log ✈ LOG6844 ✈ 20-Jun-2014 ✈ EGEC / CAL - EGPF / GLA

Flight Track Log - Related Links

Times and Time Zones

All times are in EDT time to prevent confusion due to time zone crossing. See the LOG6844 flight status page for this flight to view local times or setup timezone preferences in your user account.

Time Position Orientation Groundspeed Altitude Reporting Facility
EDT Latitude Longitude Course Direction KTS MPH feet Rate Location/Type
05:06AM 55.4765 -5.5565 66° East 116 133 1,800  Level FlightAware UK
05:06AM 55.4841 -5.5266 66° East 104 120 2,100 480 Climbing FlightAware UK
05:07AM 55.4882 -5.5077 69° East 174 200 2,200 60 Climbing FlightAware UK
05:11AM 55.5680 -5.2332 63° Northeast 142 163 2,400  Climbing FlightAware UK
05:12AM 55.5797 -5.1772 70° East 130 150 2,400 60 Level FlightAware UK
05:12AM 55.5948 -5.1515 44° Northeast 104 120 2,500 120 Climbing FlightAware UK
05:13AM 55.6035 -5.1369 43° Northeast 174 200 2,500  Level FlightAware UK
05:14AM 55.6532 -5.0717 37° Northeast 130 150 2,600 60 Climbing FlightAware UK
05:15AM 55.6672 -5.0498 41° Northeast 104 120 2,700 60 Climbing FlightAware UK
05:15AM 55.6793 -5.0330 38° Northeast 130 150 2,700  Level FlightAware UK
05:15AM 55.6884 -5.0207 37° Northeast 174 200 2,700 120 Level FlightAware UK
05:16AM 55.6976 -5.0087 36° Northeast 174 200 2,800 120 Climbing FlightAware UK
05:16AM 55.7077 -4.9986 29° Northeast 174 200 2,800 -180 Level FlightAware UK
05:16AM 55.7183 -4.9891 27° Northeast 174 200 2,700 -180 Descending FlightAware UK
05:17AM 55.7361 -4.9735 26° Northeast 104 120 2,700  Level FlightAware UK
05:17AM 55.7465 -4.9629 30° Northeast 174 200 2,700  Level FlightAware UK
05:17AM 55.7572 -4.9526 29° Northeast 174 200 2,700 120 Level FlightAware UK
05:18AM 55.7676 -4.9425 29° Northeast 174 200 2,800 120 Climbing FlightAware UK
05:18AM 55.7778 -4.9323 29° Northeast 174 200 2,800  Level FlightAware UK
05:18AM 55.7883 -4.9232 26° Northeast 174 200 2,800  Level FlightAware UK
05:19AM 55.7988 -4.9137 27° Northeast 174 200 2,800  Level FlightAware UK
05:19AM 55.8091 -4.9034 29° Northeast 174 200 2,800  Level FlightAware UK
05:19AM 55.8194 -4.8927 30° Northeast 174 200 2,800  Level FlightAware UK
05:20AM 55.8299 -4.8825 29° Northeast 174 200 2,800  Level FlightAware UK
05:20AM 55.8380 -4.8671 47° Northeast 174 200 2,800 -180 Level FlightAware UK
05:20AM 55.8433 -4.8468 65° Northeast 174 200 2,700 -360 Descending FlightAware UK
05:20AM 55.8479 -4.8254 69° East 174 200 2,600 120 Descending FlightAware UK
05:21AM 55.8543 -4.7897 72° East 104 120 2,800 60 Climbing FlightAware UK
05:21AM 55.8613 -4.7545 70° East 104 120 2,700 -120 Descending FlightAware UK
05:22AM 55.8669 -4.7266 70° East 130 150 2,700 -240 Level FlightAware UK
05:23AM 55.8846 -4.6438 69° East 130 150 2,400 -240 Descending FlightAware UK
05:27AM 55.9204 -4.5183 63° Northeast 65 75 1,700 -180 Descending FlightAware UK
05:31AM 55.8719 -4.4331 136° Southeast  Level Estimated
05:38AM 55.8719 -4.4331 North  Level Estimated
05:39AM 55.8719 -4.4331 North  Level Estimated
05:40AM 55.8719 -4.4331 North  Level Estimated
05:41AM 55.8719 -4.4331 North  Level Estimated
05:42AM 55.8719 -4.4331 North  Level Estimated